Time;durP1;ratioP1;P1;durP2;ratioP2;P2;SDS_P1;SDS_P2;PMS_P1;PMS_P2;Temp;Humidity;BMP_temperature;BMP_pressure;BME280_temperature;BME280_humidity;BME280_pressure;Samples;Min_cycle;Max_cycle;Signal;HPM_P1;HPM_P2
2021/12/16 00:05:15;;;;;;;35.60;32.00;;;;;;;8.00;80.20;101707.69;106563;1305;22039;-78
2021/12/16 00:09:11;;;;;;;;;;;;;;;;;;;;;
2021/12/16 00:34:00;;;;;;;30.90;27.80;;;;;;;7.96;80.19;101709.61;105299;1318;22029;-79
2021/12/16 00:36:52;;;;;;;;;;;;;;;;;;;;;
2021/12/16 00:39:48;;;;;;;;;;;;;;;;;;;;;
2021/12/16 00:43:48;;;;;;;;;;;;;;;;;;;;;
2021/12/16 00:47:23;;;;;;;;;;;;;;;;;;;;;
2021/12/16 00:50:19;;;;;;;32.00;28.70;;;;;;;7.98;79.97;101712.77;105774;1311;22151;-78
2021/12/16 01:01:34;;;;;;;32.90;29.70;;;;;;;7.92;79.95;101710.48;105308;1320;22083;-78
2021/12/16 01:04:59;;;;;;;;;;;;;;;7.91;80.05;101708.40;105298;1319;24456;-78
2021/12/16 01:36:28;;;;;;;;;;;;;;;;;;;;;
2021/12/16 01:47:10;;;;;;;32.10;28.70;;;;;;;7.48;80.00;101708.03;105930;1312;23773;-78
2021/12/16 01:51:13;;;;;;;;;;;;;;;;;;;;;
2021/12/16 01:57:02;;;;;;;31.90;27.50;;;;;;;7.48;80.09;101707.12;106298;1303;22969;-77
2021/12/16 02:04:38;;;;;;;29.10;26.20;;;;;;;7.50;80.22;101708.18;105491;1315;23755;-77
2021/12/16 02:11:10;;;;;;;28.10;25.20;;;;;;;7.54;80.25;101708.05;105386;1318;23179;-77
2021/12/16 02:36:12;;;;;;;;;;;;;;;;;;;;;
2021/12/16 02:39:39;;;;;;;;;;;;;;;;;;;;;
2021/12/16 02:42:38;;;;;;;25.20;22.40;;;;;;;7.51;80.06;101710.20;104793;1320;22069;-78
2021/12/16 02:48:43;;;;;;;25.40;22.40;;;;;;;7.56;80.21;101710.23;104969;1320;23052;-78
2021/12/16 02:51:39;;;;;;;26.30;23.00;;;;;;;7.56;80.00;101717.21;105021;1320;22206;-77
2021/12/16 02:54:51;;;;;;;;;;;;;;;;;;;;;
2021/12/16 02:57:51;;;;;;;29.40;25.50;;;;;;;7.59;80.11;101715.27;105070;1320;22349;-78
2021/12/16 03:00:59;;;;;;;23.90;21.40;;;;;;;7.60;80.03;101712.70;105104;1317;22033;-78
2021/12/16 03:04:01;;;;;;;24.30;21.90;;;;;;;7.63;80.12;101714.40;105325;1317;22141;-78
2021/12/16 03:06:50;;;;;;;24.10;21.70;;;;;;;7.65;80.06;101716.55;104937;1320;22098;-78
2021/12/16 03:13:47;;;;;;;;;;;;;;;;;;;;;
2021/12/16 03:20:08;;;;;;;22.70;20.50;;;;;;;7.66;79.86;101718.75;105136;1318;22061;-77
2021/12/16 03:31:06;;;;;;;19.80;17.90;;;;;;;7.69;79.84;101727.27;105153;1320;22066;-78
2021/12/16 03:33:18;;;;;;;18.90;17.00;;;;;;;7.70;79.73;101724.04;104378;1329;22044;-78
2021/12/16 03:39:37;;;;;;;;;;;;;;;;;;;;;
2021/12/16 03:42:29;;;;;;;19.20;17.30;;;;;;;7.75;79.53;101727.55;103794;1333;23845;-78
2021/12/16 03:48:35;;;;;;;;;;;;;;;;;;;;;
2021/12/16 03:51:51;;;;;;;19.30;17.40;;;;;;;7.83;79.49;101724.70;104516;1327;22484;-77
2021/12/16 03:54:59;;;;;;;19.40;17.50;;;;;;;7.85;79.38;101728.52;103838;1330;22210;-77
2021/12/16 03:58:05;;;;;;;19.50;17.50;;;;;;;7.88;79.25;101717.65;104810;1324;22047;-79
2021/12/16 04:01:27;;;;;;;20.30;18.30;;;;;;;7.88;79.19;101723.73;104828;1324;22249;-78
2021/12/16 04:04:52;;;;;;;;;;;;;;;;;;;;;
2021/12/16 04:08:31;;;;;;;22.40;20.20;;;;;;;7.83;78.96;101724.64;105873;1313;22092;-77
2021/12/16 04:12:18;;;;;;;22.90;20.70;;;;;;;7.78;78.85;101724.66;105850;1313;22083;-77
2021/12/16 04:15:37;;;;;;;23.40;21.10;;;;;;;7.73;78.69;101720.11;105544;1316;22783;-78
2021/12/16 04:19:25;;;;;;;;;;;;;;;;;;;;;
2021/12/16 04:22:40;;;;;;;20.80;18.80;;;;;;;7.66;78.77;101708.77;105712;1316;23098;-78
2021/12/16 04:25:58;;;;;;;23.60;21.20;;;;;;;7.63;78.87;101713.94;105965;1306;23723;-79
2021/12/16 04:29:51;;;;;;;;;;;;;;;;;;;;;
2021/12/16 04:33:08;;;;;;;;;;;;;;;;;;;;;
2021/12/16 04:36:33;;;;;;;;;;;;;;;;;;;;;
2021/12/16 04:40:01;;;;;;;;;;;;;;;;;;;;;
2021/12/16 04:43:21;;;;;;;;;;;;;;;;;;;;;
2021/12/16 04:46:51;;;;;;;;;;;;;;;;;;;;;
2021/12/16 04:50:58;;;;;;;;;;;;;;;;;;;;;
2021/12/16 04:54:22;;;;;;;22.30;20.10;;;;;;;7.59;78.70;101713.34;106323;1307;23068;-78
2021/12/16 04:58:06;;;;;;;;;;;;;;;;;;;;;
2021/12/16 05:01:52;;;;;;;;;;;;;;;;;;;;;
2021/12/16 05:06:10;;;;;;;21.30;19.30;;;;;;;7.58;78.86;101706.23;106195;1307;22076;-80
2021/12/16 05:13:08;;;;;;;;;;;;;;;;;;;;;
2021/12/16 05:16:46;;;;;;;;;;;;;;;;;;;;;
2021/12/16 05:19:50;;;;;;;;;;;;;;;;;;;;;
2021/12/16 05:27:19;;;;;;;;;;;;;;;;;;;;;
2021/12/16 05:30:02;;;;;;;23.10;20.60;;;;;;;7.58;78.42;101712.18;106993;1301;22008;-78
2021/12/16 05:37:23;;;;;;;;;;;;;;;;;;;;;
2021/12/16 05:39:51;;;;;;;;;;;;;;;;;;;;;
2021/12/16 05:42:51;;;;;;;;;;;;;;;;;;;;;
2021/12/16 05:46:14;;;;;;;;;;;;;;;;;;;;;
2021/12/16 05:49:17;;;;;;;;;;;;;;;;;;;;;
2021/12/16 05:52:02;;;;;;;27.50;23.80;;;;;;;7.63;78.20;101710.70;105745;1318;23042;-80
2021/12/16 05:55:53;;;;;;;24.60;21.80;;;;;;;7.65;78.10;101713.08;105439;1320;22079;-80
2021/12/16 05:58:53;;;;;;;26.80;22.50;;;;;;;7.65;78.16;101710.75;105356;1320;22094;-79
2021/12/16 06:01:59;;;;;;;27.40;23.30;;;;;;;7.67;78.18;101704.83;105029;1320;23845;-78
2021/12/16 06:05:13;;;;;;;28.70;25.70;;;;;;;7.66;78.11;101703.52;105088;1319;22869;-78
2021/12/16 06:07:59;;;;;;;25.00;22.50;;;;;;;7.64;78.05;101705.90;104983;1319;22038;-78
2021/12/16 06:27:21;;;;;;;;;;;;;;;;;;;;;
2021/12/16 06:29:53;;;;;;;32.40;28.90;;;;;;;7.45;78.90;101704.94;105885;1316;22816;-79
2021/12/16 06:32:25;;;;;;;33.30;27.30;;;;;;;7.46;79.01;101707.12;105737;1316;22806;-79
2021/12/16 06:35:43;;;;;;;;;;;;;;;;;;;;;
2021/12/16 06:38:16;;;;;;;33.90;26.20;;;;;;;7.49;79.18;101705.66;105767;1315;23806;-80
2021/12/16 06:41:41;;;;;;;28.00;24.80;;;;;;;7.50;79.31;101707.84;106103;1307;22963;-80
2021/12/16 06:44:31;;;;;;;25.40;22.30;;;;;;;7.55;79.56;101710.46;105924;1315;22053;-80
2021/12/16 06:51:10;;;;;;;25.30;22.20;;;;;;;7.60;79.58;101720.42;105365;1319;23757;-79
2021/12/16 06:54:38;;;;;;;22.00;19.80;;;;;;;7.59;79.57;101721.88;105965;1306;22071;-81
2021/12/16 06:57:42;;;;;;;21.50;19.40;;;;;;;7.60;79.63;101718.87;106404;1306;23084;-78
2021/12/16 07:05:49;;;;;;;;;;;;;;;;;;;;;
2021/12/16 07:12:12;;;;;;;22.10;19.90;;;;;;;7.58;80.04;101721.27;108557;1286;24425;-77
2021/12/16 07:14:48;;;;;;;21.10;19.20;;;;;;;7.64;80.21;101723.45;107819;1287;22757;-77
2021/12/16 07:17:23;;;;;;;22.80;20.40;;;;;;;7.70;80.16;101720.77;107992;1288;21988;-75
2021/12/16 07:20:09;;;;;;;23.50;20.70;;;;;;;7.74;80.18;101717.99;108038;1287;22003;-75
2021/12/16 07:22:52;;;;;;;23.80;21.50;;;;;;;7.76;80.15;101724.48;108064;1287;22010;-78
2021/12/16 07:26:22;;;;;;;26.60;23.90;;;;;;;7.76;80.21;101732.41;107612;1290;22020;-78
2021/12/16 07:29:20;;;;;;;26.70;24.10;;;;;;;7.76;80.21;101733.96;107618;1294;22016;-78
2021/12/16 07:31:59;;;;;;;29.10;25.60;;;;;;;7.78;80.22;101733.60;107383;1294;22031;-77
2021/12/16 07:34:34;;;;;;;30.30;27.10;;;;;;;7.79;80.13;101733.89;107064;1300;23062;-75
2021/12/16 07:37:26;;;;;;;38.00;29.40;;;;;;;7.83;80.27;101736.23;106366;1304;23088;-76
2021/12/16 07:40:14;;;;;;;28.00;24.80;;;;;;;7.84;80.21;101732.45;106501;1304;24340;-77
2021/12/16 07:46:02;;;;;;;25.10;22.40;;;;;;;7.88;80.34;101730.25;107072;1298;22698;-80
2021/12/16 07:49:18;;;;;;;24.40;22.10;;;;;;;7.90;80.53;101733.27;106568;1304;22017;-81
2021/12/16 07:52:46;;;;;;;;;;;;;;;;;;;;;
2021/12/16 07:55:56;;;;;;;;;;;;;;;;;;;;;
2021/12/16 07:59:11;;;;;;;27.10;24.30;;;;;;;7.94;80.42;101733.79;107117;1299;22009;-77
2021/12/16 08:01:56;;;;;;;28.70;25.60;;;;;;;7.99;80.54;101736.56;106786;1304;23716;-77
2021/12/16 08:04:38;;;;;;;27.00;24.20;;;;;;;8.03;80.37;101740.02;106856;1301;22004;-77
2021/12/16 08:07:20;;;;;;;28.00;25.00;;;;;;;8.04;80.31;101746.77;107218;1295;22061;-77
2021/12/16 08:10:16;;;;;;;32.20;24.60;;;;;;;8.02;80.10;101753.94;107408;1294;22247;-77
2021/12/16 08:12:49;;;;;;;25.10;22.70;;;;;;;7.98;80.08;101755.42;107087;1297;24512;-77
2021/12/16 08:15:59;;;;;;;26.20;23.50;;;;;;;7.97;80.18;101757.04;107142;1292;22028;-75
2021/12/16 08:18:56;;;;;;;24.90;22.40;;;;;;;7.96;80.18;101760.13;107646;1295;23057;-76
2021/12/16 08:21:29;;;;;;;25.80;23.00;;;;;;;7.96;80.31;101768.23;107386;1298;22009;-76
2021/12/16 08:24:13;;;;;;;26.00;22.90;;;;;;;8.00;80.51;101768.95;106877;1302;22899;-75
2021/12/16 08:26:53;;;;;;;31.10;28.00;;;;;;;8.03;80.31;101773.16;105951;1309;22030;-76
2021/12/16 08:29:38;;;;;;;29.50;25.10;;;;;;;8.06;80.41;101771.36;105571;1315;22904;-76
2021/12/16 08:32:10;;;;;;;28.30;25.30;;;;;;;8.08;80.32;101775.08;105637;1315;22567;-76
2021/12/16 08:34:46;;;;;;;32.70;28.00;;;;;;;8.09;80.33;101777.04;105418;1318;23199;-76
2021/12/16 08:37:28;;;;;;;;;;;;;;;;;;;;;
2021/12/16 08:40:03;;;;;;;31.80;28.40;;;;;;;8.11;80.09;101774.95;105203;1315;22442;-75
2021/12/16 08:42:55;;;;;;;31.10;27.90;;;;;;;8.10;80.06;101776.85;105678;1311;22063;-76
2021/12/16 08:45:37;;;;;;;30.90;27.60;;;;;;;8.09;80.16;101786.40;106098;1306;22028;-76
2021/12/16 08:48:39;;;;;;;33.00;29.00;;;;;;;8.07;80.26;101789.70;106733;1300;23068;-76
2021/12/16 08:51:25;;;;;;;33.00;29.40;;;;;;;8.09;80.45;101792.52;106946;1300;22023;-75
2021/12/16 08:54:06;;;;;;;33.60;30.40;;;;;;;8.10;80.38;101788.96;107473;1294;22031;-75
2021/12/16 08:56:43;;;;;;;34.40;30.80;;;;;;;8.10;80.45;101789.41;107811;1288;22872;-79
2021/12/16 08:59:24;;;;;;;33.10;29.70;;;;;;;8.11;80.36;101798.87;107930;1287;23187;-77
2021/12/16 09:02:12;;;;;;;33.10;29.70;;;;;;;8.12;80.40;101802.66;107946;1288;23068;-77
2021/12/16 09:04:53;;;;;;;31.70;26.90;;;;;;;8.16;80.59;101803.40;108059;1287;22242;-76
2021/12/16 09:07:53;;;;;;;29.40;26.20;;;;;;;8.16;80.49;101805.43;107984;1287;22015;-77
2021/12/16 09:10:31;;;;;;;31.80;27.00;;;;;;;8.15;80.36;101812.40;107965;1288;22002;-77
2021/12/16 09:13:14;;;;;;;28.40;25.50;;;;;;;8.16;80.49;101807.98;108064;1288;23596;-77
2021/12/16 09:16:00;;;;;;;28.00;25.00;;;;;;;8.16;80.51;101800.89;108063;1289;22144;-77
2021/12/16 09:18:37;;;;;;;27.60;24.60;;;;;;;8.17;80.59;101801.52;107637;1288;23083;-77
2021/12/16 09:21:28;;;;;;;27.70;24.80;;;;;;;8.20;80.58;101808.20;107999;1288;21986;-77
2021/12/16 09:27:52;;;;;;;37.40;26.80;;;;;;;8.22;80.77;101801.71;107984;1294;22506;-78
2021/12/16 09:31:14;;;;;;;23.90;21.40;;;;;;;8.23;80.87;101800.73;107528;1295;23595;-79
2021/12/16 09:34:17;;;;;;;23.50;21.00;;;;;;;8.28;80.81;101801.24;107595;1295;22042;-75
2021/12/16 09:36:58;;;;;;;24.00;20.50;;;;;;;8.31;80.72;101805.08;106882;1301;23077;-75
2021/12/16 09:39:39;;;;;;;22.30;19.40;;;;;;;8.32;80.66;101804.60;106941;1301;23627;-75
2021/12/16 09:42:09;;;;;;;21.50;19.50;;;;;;;8.33;80.68;101803.16;106796;1300;22062;-74
2021/12/16 09:45:08;;;;;;;20.20;18.10;;;;;;;8.36;80.73;101803.41;107076;1300;23757;-76
2021/12/16 09:48:06;;;;;;;22.70;19.30;;;;;;;8.36;80.66;101793.25;106363;1307;24709;-79
2021/12/16 09:51:20;;;;;;;;;;;;;;;;;;;;;
2021/12/16 09:54:17;;;;;;;18.70;16.90;;;;;;;8.34;80.52;101778.69;104497;1307;2470243;-78
2021/12/16 09:57:13;;;;;;;21.50;19.30;;;;;;;8.34;80.63;101782.01;106846;1301;23578;-78
2021/12/16 10:00:22;;;;;;;23.20;20.70;;;;;;;8.34;80.45;101783.95;107027;1302;22003;-76
2021/12/16 10:03:28;;;;;;;21.00;18.90;;;;;;;8.31;80.50;101772.27;106870;1294;23089;-78
2021/12/16 10:05:59;;;;;;;21.30;19.10;;;;;;;8.33;80.76;101772.39;107460;1289;21998;-80
2021/12/16 10:08:45;;;;;;;20.10;18.20;;;;;;;8.41;80.86;101771.66;107840;1289;22043;-79
2021/12/16 10:11:32;;;;;;;22.70;20.40;;;;;;;8.43;80.69;101776.61;108042;1288;22085;-76
2021/12/16 10:17:30;;;;;;;21.80;19.50;;;;;;;8.46;80.64;101765.27;108018;1288;22033;-78
2021/12/16 10:20:40;;;;;;;20.40;18.30;;;;;;;8.45;80.54;101763.95;108096;1288;23615;-78
2021/12/16 10:24:06;;;;;;;21.20;18.30;;;;;;;8.48;80.69;101757.40;108004;1288;22008;-77
2021/12/16 10:27:02;;;;;;;20.60;18.50;;;;;;;8.49;80.61;101755.38;107804;1293;22012;-78
2021/12/16 10:30:14;;;;;;;18.30;16.40;;;;;;;8.50;80.47;101761.30;107254;1297;22012;-78
2021/12/16 10:32:49;;;;;;;21.90;19.60;;;;;;;8.48;80.37;101764.27;107032;1298;23061;-76
2021/12/16 10:35:28;;;;;;;;;;;;;;;8.47;80.42;101781.14;106916;1298;22581;-76
2021/12/16 10:38:06;;;;;;;19.60;17.40;;;;;;;8.40;80.49;101771.52;107238;1297;22158;-77
2021/12/16 10:41:00;;;;;;;19.90;17.90;;;;;;;8.40;80.59;101770.54;107300;1298;22015;-76
2021/12/16 10:43:42;;;;;;;21.70;19.50;;;;;;;8.40;80.47;101756.61;107270;1298;22139;-76
2021/12/16 10:46:28;;;;;;;21.40;18.70;;;;;;;8.42;80.58;101768.21;107650;1292;24061;-77
2021/12/16 10:49:05;;;;;;;21.10;19.10;;;;;;;8.45;80.55;101783.60;107589;1295;23592;-76
2021/12/16 10:51:46;;;;;;;19.70;17.70;;;;;;;8.48;80.62;101770.42;107712;1292;23502;-76
2021/12/16 10:54:27;;;;;;;21.30;19.00;;;;;;;8.53;80.66;101778.27;107778;1293;22055;-76
2021/12/16 10:57:01;;;;;;;25.90;23.20;;;;;;;8.53;80.38;101775.83;107766;1294;23774;-76
2021/12/16 10:59:44;;;;;;;19.90;17.80;;;;;;;8.50;80.29;101781.34;107805;1293;22323;-76
2021/12/16 11:02:30;;;;;;;19.40;16.70;;;;;;;8.51;80.44;101787.25;107675;1294;22000;-76
2021/12/16 11:05:23;;;;;;;18.00;16.30;;;;;;;8.51;80.37;101800.73;107714;1294;22013;-75
2021/12/16 11:07:59;;;;;;;20.70;18.60;;;;;;;8.49;80.34;101786.98;107641;1295;23768;-77
2021/12/16 11:10:39;;;;;;;24.40;22.00;;;;;;;8.49;80.25;101789.97;107828;1293;22055;-76
2021/12/16 11:13:13;;;;;;;20.40;18.30;;;;;;;8.52;80.52;101792.80;107767;1288;23795;-77
2021/12/16 11:15:53;;;;;;;21.60;19.40;;;;;;;8.55;80.46;101777.92;107717;1291;21981;-76
2021/12/16 11:18:28;;;;;;;22.50;20.20;;;;;;;8.56;80.49;101764.66;107469;1292;23067;-76
2021/12/16 11:21:03;;;;;;;35.80;19.80;;;;;;;8.60;80.60;101752.43;107486;1295;23068;-76
2021/12/16 11:23:38;;;;;;;23.30;20.80;;;;;;;8.65;80.68;101751.19;107486;1294;22881;-76
2021/12/16 11:26:56;;;;;;;23.30;20.80;;;;;;;8.64;80.24;101754.27;107025;1300;23711;-77
2021/12/16 11:29:39;;;;;;;20.60;18.50;;;;;;;8.63;80.28;101766.80;107106;1301;22009;-76
2021/12/16 11:33:05;;;;;;;21.30;19.20;;;;;;;8.64;80.23;101758.41;106987;1301;22018;-76
2021/12/16 11:35:47;;;;;;;23.50;21.00;;;;;;;8.65;80.32;101748.66;106089;1310;22058;-77
2021/12/16 11:38:40;;;;;;;20.90;18.80;;;;;;;8.71;80.32;101763.55;105982;1309;23046;-74
2021/12/16 11:41:30;;;;;;;20.10;17.70;;;;;;;8.73;80.12;101767.52;106222;1306;22047;-73
2021/12/16 11:44:10;;;;;;;21.80;19.50;;;;;;;8.68;79.84;101770.60;106461;1302;23027;-73
2021/12/16 11:47:05;;;;;;;20.40;18.20;;;;;;;8.62;79.71;101759.12;106890;1301;22095;-73
2021/12/16 11:49:37;;;;;;;22.00;19.40;;;;;;;8.57;79.62;101748.85;106894;1300;23611;-72
2021/12/16 11:52:24;;;;;;;19.50;17.50;;;;;;;8.56;79.89;101740.14;106968;1301;22015;-73
2021/12/16 11:55:01;;;;;;;20.00;18.00;;;;;;;8.54;79.87;101743.60;106844;1301;22141;-71
2021/12/16 11:57:41;;;;;;;21.40;18.40;;;;;;;8.53;79.81;101748.82;106660;1301;22073;-73
2021/12/16 12:00:26;;;;;;;19.10;17.10;;;;;;;8.49;79.73;101750.30;106868;1301;23093;-73
2021/12/16 12:03:04;;;;;;;20.30;18.00;;;;;;;8.45;79.90;101746.39;106585;1301;22095;-73
2021/12/16 12:05:42;;;;;;;19.60;17.50;;;;;;;8.44;79.99;101746.42;107006;1295;22804;-74
2021/12/16 12:08:26;;;;;;;17.20;15.40;;;;;;;8.43;79.97;101742.14;107542;1295;22015;-74
2021/12/16 12:10:59;;;;;;;19.00;17.00;;;;;;;8.41;79.92;101746.94;107568;1295;23156;-76
2021/12/16 12:13:43;;;;;;;18.10;16.20;;;;;;;8.38;79.83;101753.95;107733;1293;24454;-73
2021/12/16 12:16:16;;;;;;;17.60;14.50;;;;;;;8.34;79.91;101760.06;107678;1293;22007;-73
2021/12/16 12:18:59;;;;;;;17.90;15.10;;;;;;;8.32;80.01;101765.86;107619;1289;22024;-73
2021/12/16 12:21:58;;;;;;;21.70;19.50;;;;;;;8.30;80.03;101771.80;108008;1288;22696;-72
2021/12/16 12:24:46;;;;;;;20.70;18.70;;;;;;;8.26;80.01;101776.30;108122;1288;23646;-73
2021/12/16 12:27:23;;;;;;;18.10;16.30;;;;;;;8.24;80.21;101778.21;108033;1286;22000;-73
2021/12/16 12:30:03;;;;;;;17.00;15.20;;;;;;;8.22;80.18;101782.55;108218;1288;21989;-73
2021/12/16 12:32:43;;;;;;;18.50;14.10;;;;;;;8.21;80.14;101790.87;107765;1292;23049;-72
2021/12/16 12:35:36;;;;;;;14.00;12.70;;;;;;;8.21;80.33;101787.71;107602;1292;22492;-74
2021/12/16 12:38:07;;;;;;;14.00;12.50;;;;;;;8.19;80.33;101782.26;106989;1299;22094;-72
2021/12/16 12:40:47;;;;;;;14.60;12.90;;;;;;;8.18;80.35;101779.20;107214;1301;23789;-74
2021/12/16 12:43:37;;;;;;;;;;;;;;;;;;;;;
2021/12/16 12:46:28;;;;;;;13.10;11.70;;;;;;;8.16;80.38;101777.78;107117;1301;23698;-74
2021/12/16 12:49:11;;;;;;;15.10;12.90;;;;;;;8.14;80.38;101781.75;107121;1301;22102;-73
2021/12/16 12:51:48;;;;;;;13.20;11.10;;;;;;;8.14;80.39;101785.67;107428;1297;22780;-73
2021/12/16 12:54:37;;;;;;;13.70;11.60;;;;;;;8.13;80.38;101787.63;107522;1297;23725;-72
2021/12/16 12:57:30;;;;;;;11.20;10.10;;;;;;;8.13;80.37;101786.24;107002;1301;22069;-74
2021/12/16 13:00:09;;;;;;;13.00;11.40;;;;;;;8.12;80.45;101784.90;106879;1301;23109;-73
2021/12/16 13:02:40;;;;;;;13.20;11.90;;;;;;;8.12;80.54;101790.91;106951;1301;23723;-73
2021/12/16 13:05:18;;;;;;;13.40;12.00;;;;;;;8.12;80.48;101785.47;106830;1301;23720;-73
2021/12/16 13:07:58;;;;;;;12.70;11.10;;;;;;;8.11;80.49;101785.55;107012;1301;22073;-72
2021/12/16 13:10:48;;;;;;;13.50;12.10;;;;;;;8.10;80.46;101791.44;106850;1301;22180;-74
2021/12/16 13:27:45;;;;;;;14.20;12.80;;;;;;;8.08;80.64;101792.91;106909;1302;22045;-74
2021/12/16 13:30:40;;;;;;;13.80;12.30;;;;;;;8.11;80.67;101794.33;106626;1303;22039;-73
2021/12/16 13:33:26;;;;;;;13.50;11.40;;;;;;;8.12;80.70;101786.70;107397;1297;23744;-77
2021/12/16 13:36:06;;;;;;;14.70;12.20;;;;;;;8.15;80.65;101783.78;107314;1295;22320;-73
2021/12/16 13:38:44;;;;;;;14.00;12.10;;;;;;;8.17;80.63;101779.45;107011;1298;22140;-73
2021/12/16 13:41:20;;;;;;;14.30;11.60;;;;;;;8.18;80.49;101778.31;107367;1295;22064;-73
2021/12/16 13:44:06;;;;;;;13.50;12.10;;;;;;;8.19;80.32;101774.86;107484;1295;22035;-74
2021/12/16 13:47:12;;;;;;;12.00;10.30;;;;;;;8.20;80.18;101777.66;106980;1301;23612;-73
2021/12/16 14:05:03;;;;;;;16.90;13.50;;;;;;;7.80;79.61;101782.95;106954;1295;22018;-74
2021/12/16 14:07:59;;;;;;;15.20;13.60;;;;;;;7.75;79.68;101792.23;107638;1295;22000;-74
2021/12/16 14:10:55;;;;;;;18.40;13.60;;;;;;;7.72;79.65;101802.13;107474;1293;22534;-74
2021/12/16 14:42:03;;;;;;;25.60;17.10;;;;;;;7.45;79.22;101809.86;107447;1295;22033;-74
2021/12/16 14:45:22;;;;;;;19.20;17.00;;;;;;;7.41;79.14;101811.42;107552;1292;22033;-73
2021/12/16 14:48:20;;;;;;;20.90;15.30;;;;;;;7.38;79.09;101811.29;107369;1298;22012;-74
2021/12/16 14:50:59;;;;;;;21.10;16.60;;;;;;;7.35;79.06;101808.55;107278;1298;22041;-74
2021/12/16 14:53:43;;;;;;;18.30;14.70;;;;;;;7.32;78.95;101807.48;107280;1297;23021;-73
2021/12/16 14:56:25;;;;;;;17.90;16.00;;;;;;;7.30;78.81;101806.64;106970;1300;23023;-73
2021/12/16 14:59:01;;;;;;;18.40;14.70;;;;;;;7.27;78.91;101823.98;106708;1304;23020;-73
2021/12/16 15:01:47;;;;;;;16.70;13.60;;;;;;;7.24;78.82;101826.81;107426;1298;22013;-74
2021/12/16 15:04:22;;;;;;;12.00;10.80;;;;;;;7.19;78.69;101832.31;107196;1298;24318;-75
2021/12/16 15:07:07;;;;;;;13.50;10.50;;;;;;;7.14;78.74;101839.09;107248;1298;23164;-73
2021/12/16 15:09:39;;;;;;;18.80;10.40;;;;;;;7.14;78.98;101847.02;107073;1301;23069;-74
2021/12/16 15:12:37;;;;;;;;;;;;;;;7.15;78.96;101858.11;107137;1298;23867;-73
2021/12/16 15:15:32;;;;;;;14.00;11.90;;;;;;;7.09;79.08;101867.68;107600;1294;23666;-74
2021/12/16 15:43:21;;;;;;;18.90;15.30;;;;;;;6.85;78.45;101881.27;107288;1298;22009;-74
2021/12/16 15:45:53;;;;;;;19.20;15.20;;;;;;;6.83;78.48;101883.16;107438;1294;22011;-74
2021/12/16 15:48:29;;;;;;;19.00;14.40;;;;;;;6.81;78.52;101883.27;108069;1287;22336;-73
2021/12/16 15:51:11;;;;;;;15.30;13.70;;;;;;;6.79;78.48;101881.70;107854;1290;22021;-74
2021/12/16 15:53:53;;;;;;;23.80;18.00;;;;;;;6.76;78.27;101886.43;108097;1289;22016;-74
2021/12/16 15:56:49;;;;;;;20.40;16.70;;;;;;;6.72;78.32;101886.86;108130;1288;22004;-74
2021/12/16 15:59:28;;;;;;;20.50;15.00;;;;;;;6.67;78.24;101879.22;107552;1295;21996;-74
2021/12/16 16:02:00;;;;;;;20.90;15.90;;;;;;;6.61;78.17;101878.56;107565;1295;22924;-73
2021/12/16 16:04:35;;;;;;;22.80;15.80;;;;;;;6.57;78.22;101880.85;107542;1294;22013;-74
2021/12/16 16:07:12;;;;;;;20.80;15.30;;;;;;;6.54;78.16;101883.89;107689;1294;22241;-74
2021/12/16 16:09:52;;;;;;;20.60;15.10;;;;;;;6.50;78.14;101895.35;107153;1298;22073;-73
2021/12/16 16:12:30;;;;;;;25.10;16.40;;;;;;;6.46;78.19;101905.64;107132;1298;23918;-73
2021/12/16 16:15:18;;;;;;;20.90;13.90;;;;;;;6.41;78.14;101909.11;107313;1298;24438;-73
2021/12/16 16:18:12;;;;;;;24.10;15.60;;;;;;;6.36;78.08;101907.33;107320;1292;22023;-74
2021/12/16 16:20:48;;;;;;;18.80;14.20;;;;;;;6.34;78.15;101913.23;107657;1292;23048;-74
2021/12/16 16:23:18;;;;;;;18.60;14.20;;;;;;;6.34;78.30;101914.44;107625;1292;22715;-74
2021/12/16 16:25:48;;;;;;;20.40;14.80;;;;;;;6.34;78.29;101921.13;107168;1298;22377;-74
2021/12/16 16:28:20;;;;;;;20.00;13.80;;;;;;;6.36;78.39;101910.52;107435;1298;24641;-74
2021/12/16 16:30:53;;;;;;;19.10;13.70;;;;;;;6.37;78.43;101909.22;107491;1297;23887;-74
2021/12/16 16:33:23;;;;;;;19.80;14.20;;;;;;;6.38;78.54;101910.87;107534;1297;22002;-74
2021/12/16 16:36:06;;;;;;;19.50;14.30;;;;;;;6.39;78.51;101907.14;107169;1297;22111;-74
2021/12/16 16:38:52;;;;;;;17.90;14.50;;;;;;;6.43;78.62;101911.79;107104;1300;22491;-74
2021/12/16 16:41:28;;;;;;;17.30;14.20;;;;;;;6.44;78.52;101912.39;107137;1300;22887;-74
2021/12/16 16:44:07;;;;;;;18.90;13.70;;;;;;;6.45;78.61;101905.67;107373;1295;22251;-74
2021/12/16 16:46:46;;;;;;;23.00;15.30;;;;;;;6.49;78.62;101906.84;107270;1295;22005;-74
2021/12/16 16:49:29;;;;;;;22.70;14.60;;;;;;;6.52;78.64;101911.71;107529;1295;21995;-73
2021/12/16 16:52:05;;;;;;;22.40;16.10;;;;;;;6.55;78.54;101909.58;107244;1298;23625;-73
2021/12/16 16:55:07;;;;;;;23.30;17.30;;;;;;;6.58;78.45;101912.65;107244;1298;23754;-73
2021/12/16 16:57:47;;;;;;;26.40;16.10;;;;;;;6.62;78.32;101919.45;106703;1301;23064;-73
2021/12/16 17:00:25;;;;;;;25.30;15.10;;;;;;;6.66;78.35;101919.71;106911;1301;22038;-73
2021/12/16 17:03:17;;;;;;;24.90;17.00;;;;;;;6.65;78.11;101918.52;106852;1301;23844;-74
2021/12/16 17:06:10;;;;;;;25.80;15.00;;;;;;;6.64;78.03;101917.36;107548;1295;23755;-73
2021/12/16 17:08:42;;;;;;;20.10;14.90;;;;;;;6.63;77.97;101914.48;107478;1295;22334;-74
2021/12/16 17:11:20;;;;;;;20.20;13.20;;;;;;;6.60;77.81;101900.12;107131;1298;22028;-74
2021/12/16 17:14:13;;;;;;;19.00;14.40;;;;;;;6.56;77.81;101897.20;107458;1297;24241;-74
2021/12/16 17:17:22;;;;;;;20.20;14.70;;;;;;;6.52;77.79;101896.43;107312;1298;22062;-74
2021/12/16 17:20:13;;;;;;;22.20;14.50;;;;;;;6.48;77.72;101892.03;107498;1294;23094;-74
2021/12/16 17:22:50;;;;;;;21.30;14.00;;;;;;;6.45;77.81;101893.63;107265;1292;23726;-75
2021/12/16 17:25:21;;;;;;;21.40;13.10;;;;;;;6.42;77.81;101899.21;106952;1297;23077;-73
2021/12/16 17:28:01;;;;;;;16.90;13.30;;;;;;;6.41;77.91;101904.23;106991;1300;23029;-73
2021/12/16 17:30:38;;;;;;;16.80;13.30;;;;;;;6.38;77.79;101908.60;107291;1297;23028;-73
2021/12/16 17:33:13;;;;;;;18.00;11.70;;;;;;;6.36;77.92;101919.21;107225;1294;22006;-73
2021/12/16 17:35:46;;;;;;;19.90;14.00;;;;;;;6.35;77.97;101926.48;107547;1294;22075;-73
2021/12/16 17:38:23;;;;;;;23.40;14.10;;;;;;;6.35;77.99;101929.27;107501;1294;24571;-74
2021/12/16 17:41:04;;;;;;;20.80;14.10;;;;;;;6.36;78.00;101935.00;107561;1294;22066;-74
2021/12/16 17:43:43;;;;;;;23.00;13.70;;;;;;;6.38;78.01;101937.00;107527;1294;22038;-74
2021/12/16 17:46:19;;;;;;;21.10;13.20;;;;;;;6.39;78.01;101932.55;107448;1292;24504;-74
2021/12/16 17:48:50;;;;;;;22.90;13.90;;;;;;;6.41;78.11;101936.27;107570;1297;22117;-74
2021/12/16 17:51:25;;;;;;;26.40;15.60;;;;;;;6.43;78.07;101940.88;107776;1289;23096;-74
2021/12/16 17:54:18;;;;;;;29.80;16.50;;;;;;;6.44;78.08;101939.21;107892;1289;260502;-72
2021/12/16 17:57:21;;;;;;;20.80;13.20;;;;;;;6.48;78.35;101951.88;108372;1289;23760;-78
2021/12/16 18:00:40;;;;;;;17.80;11.30;;;;;;;6.59;78.81;101955.17;107904;1289;22039;-78
2021/12/16 18:03:25;;;;;;;21.50;13.00;;;;;;;6.73;78.87;101954.06;107914;1288;23735;-74
2021/12/16 18:06:04;;;;;;;20.10;12.80;;;;;;;6.75;78.36;101958.64;108103;1287;22320;-75
2021/12/16 18:08:43;;;;;;;23.80;12.80;;;;;;;6.72;77.97;101958.67;108011;1288;23064;-72
2021/12/16 18:11:24;;;;;;;20.80;12.70;;;;;;;6.71;77.90;101962.08;108120;1288;22543;-74
2021/12/16 18:14:16;;;;;;;20.10;11.80;;;;;;;6.69;77.80;101953.13;107725;1289;23649;-72
2021/12/16 18:16:56;;;;;;;19.00;11.90;;;;;;;6.69;77.89;101954.33;107637;1294;23167;-75
2021/12/16 18:19:35;;;;;;;;;;;;;;;6.70;77.88;101954.59;107441;1297;23586;-74
2021/12/16 18:22:16;;;;;;;16.70;11.40;;;;;;;6.62;78.02;101960.02;107503;1295;22002;-75
2021/12/16 18:24:54;;;;;;;15.90;11.20;;;;;;;6.62;77.93;101958.09;107368;1298;22598;-74
2021/12/16 18:27:33;;;;;;;17.00;11.40;;;;;;;6.63;77.87;101955.42;106961;1301;23634;-74
2021/12/16 18:30:55;;;;;;;18.40;13.00;;;;;;;6.64;77.89;101960.12;107004;1301;23375;-73